Huvudsida
METAR-TAF:

METAR-TAF

Flygplatser :

Riyadh, Saudiarabien

latitud: 24-56N, longitud: 046-43E, höjd: 614 m

Aktuellt väderrapport

Denna rapport gjordes för 47 minuter sedan, klockan 14:00 UTC
Vind 14 kt från nord
Temperatur 44°C
Fuktighet 5%
Tryck 1007 hPa
Sikt 10 km eller mer
Inga moln under 1 500 m eller inga cumulonimbus

METAR: OERK 261400Z 35014KT CAVOK 44/M03 Q1007 NOSIG

Tid: 17:47 (14:47 UTC)

Väderprognos

Denna rapport gjordes för 3 timmar och 47 minuter sedan, klockan 11:00 UTC
Prognos gäller från 26 kl. 12 UTC till 27 kl. 18 UTC
Vind 14 kt från nord
Sikt: 7000 m
Blir
från 26 kl. 20 UTC till 26 kl. 22 UTC
Vind 3 kt varierande vindriktning

TAF: OERK 261100Z 2612/2718 36014KT 7000 NSC BECMG 2620/2622 VRB03KT

Aktuella väderrapporter och prognoser från 4000 flygplatser (METAR- och TAF-rapporter).

De tillgängliga stationerna syns som gula och röda prickar på kartan.

För musen över prickarna för att se namnen på stationerna.

Klicka sedan för att få väderrapporter och prognoser.

För att ändra kartan: Klicka på de gröna knapparna med ett svart kors på för att zooma in; den gröna knappen med ett streck på för att zooma ut; eller på de gröna pilarna för angränsande kartor.


METAR-TAF: